Time;durP1;ratioP1;P1;durP2;ratioP2;P2;SDS_P1;SDS_P2;PMS_P1;PMS_P2;Temp;Humidity;BMP_temperature;BMP_pressure;BME280_temperature;BME280_humidity;BME280_pressure;Samples;Min_cycle;Max_cycle;Signal;HPM_P1;HPM_P2
2023/05/30 00:00:54;;;;;;;14.65;2.67;;;;;;;-146.25;89.11;52161.38;2104710;28;34056;-65
2023/05/30 00:01:56;;;;;;;11.80;2.83;;;;;;;-146.25;89.16;52171.53;2095262;28;33444;-65
2023/05/30 00:03:00;;;;;;;13.02;2.60;;;;;;;-146.25;89.43;52139.09;2095367;28;35526;-65
2023/05/30 00:04:02;;;;;;;13.27;2.83;;;;;;;-146.25;89.23;52141.13;2087396;28;29299;-65
2023/05/30 00:05:04;;;;;;;14.05;3.00;;;;;;;-146.25;89.61;52130.97;2087956;28;31705;-66
2023/05/30 00:06:07;;;;;;;15.85;3.15;;;;;;;-146.25;89.38;52133.00;2105256;28;20094;-65
2023/05/30 00:07:09;;;;;;;15.48;2.75;;;;;;;-146.25;89.17;52124.91;2095853;28;37047;-65
2023/05/30 00:08:10;;;;;;;15.80;2.80;;;;;;;-146.25;89.32;52165.44;2097126;28;34294;-64
2023/05/30 00:09:12;;;;;;;19.48;3.17;;;;;;;-146.25;89.71;52124.91;2105715;28;35433;-65
2023/05/30 00:10:14;;;;;;;13.77;3.25;;;;;;;-146.25;89.00;52179.63;2105700;28;36627;-65
2023/05/30 00:11:18;;;;;;;13.02;2.80;;;;;;;-146.25;89.04;52133.00;2105469;28;38015;-65
2023/05/30 00:12:20;;;;;;;18.00;3.17;;;;;;;-146.25;88.86;52147.19;2105470;28;33878;-65
2023/05/30 00:13:22;;;;;;;14.30;3.08;;;;;;;-146.25;89.22;52137.06;2106231;28;20037;-66
2023/05/30 00:14:26;;;;;;;12.68;2.60;;;;;;;-146.25;88.88;52173.56;2105458;28;33258;-65
2023/05/30 00:15:31;;;;;;;13.20;3.17;;;;;;;-146.25;88.57;52151.25;2105664;28;34230;-65
2023/05/30 00:16:34;;;;;;;13.23;2.72;;;;;;;-146.25;89.28;52128.94;2105506;28;35128;-66
2023/05/30 00:17:36;;;;;;;9.00;2.13;;;;;;;-146.25;89.09;52161.38;2106327;28;20044;-65
2023/05/30 00:18:38;;;;;;;13.50;2.88;;;;;;;-146.25;88.86;52161.38;2105809;28;33006;-65
2023/05/30 00:19:40;;;;;;;13.98;2.38;;;;;;;-146.25;88.86;52126.91;2105662;28;34332;-66
2023/05/30 00:20:44;;;;;;;11.02;3.20;;;;;;;-146.25;88.42;52181.66;2105866;28;33300;-65
2023/05/30 00:21:47;;;;;;;11.45;2.35;;;;;;;-146.25;88.54;52163.41;2106296;28;20029;-65
2023/05/30 00:22:51;;;;;;;13.82;3.22;;;;;;;-146.25;88.39;52161.38;2106099;28;20928;-65
2023/05/30 00:23:52;;;;;;;15.88;2.67;;;;;;;-146.25;88.99;52173.56;2105843;28;33221;-66
2023/05/30 00:24:59;;;;;;;10.50;2.47;;;;;;;-146.25;89.02;52124.91;2105453;28;33447;-66
2023/05/30 00:26:03;;;;;;;13.50;2.78;;;;;;;-146.25;89.45;52137.06;2105724;28;34776;-66
2023/05/30 00:27:05;;;;;;;14.10;2.72;;;;;;;-146.25;89.07;52157.34;2105690;28;35388;-66
2023/05/30 00:28:07;;;;;;;12.98;2.90;;;;;;;-146.25;88.80;52175.56;2105515;28;29359;-65
2023/05/30 00:29:09;;;;;;;15.52;3.35;;;;;;;-146.25;89.53;52126.91;2106022;28;20140;-65
2023/05/30 00:30:14;;;;;;;13.98;2.92;;;;;;;-146.25;89.37;52185.72;2105954;28;20103;-66
2023/05/30 00:31:15;;;;;;;18.45;2.95;;;;;;;-146.25;89.61;52169.50;2096527;28;32329;-66
2023/05/30 00:32:17;;;;;;;14.55;2.60;;;;;;;-146.25;89.82;52130.97;2096886;28;22331;-66
2023/05/30 00:33:22;;;;;;;12.02;2.58;;;;;;;-146.25;89.48;52147.19;2105913;28;20897;-66
2023/05/30 00:34:24;;;;;;;16.77;3.08;;;;;;;-146.25;89.71;52133.00;2096967;28;28268;-66
2023/05/30 00:35:26;;;;;;;18.38;2.70;;;;;;;-146.25;89.74;52165.44;2097281;28;26320;-65
2023/05/30 00:36:28;;;;;;;13.13;2.92;;;;;;;-146.25;89.23;52155.31;2096276;28;33814;-66
2023/05/30 00:37:32;;;;;;;17.80;2.80;;;;;;;-146.25;89.51;52118.81;2097445;28;20071;-65
2023/05/30 00:38:34;;;;;;;10.20;2.58;;;;;;;-146.25;89.07;52177.59;2105139;28;25531;-65
2023/05/30 00:39:36;;;;;;;12.73;2.55;;;;;;;-146.25;89.05;52157.34;2106473;28;20037;-65
2023/05/30 00:40:37;;;;;;;9.95;2.65;;;;;;;-146.25;89.30;52163.41;2106104;28;20700;-65
2023/05/30 00:41:40;;;;;;;17.05;3.42;;;;;;;-146.25;89.61;52149.22;2096441;28;31018;-65
2023/05/30 00:42:44;;;;;;;11.55;2.90;;;;;;;-146.25;89.45;52169.50;2097930;28;20029;-65
2023/05/30 00:43:46;;;;;;;10.52;2.83;;;;;;;-146.25;89.42;52128.94;2106008;28;20033;-65
2023/05/30 00:44:48;;;;;;;12.23;2.80;;;;;;;-146.25;89.50;52165.44;2105754;28;28374;-65
2023/05/30 00:45:54;;;;;;;13.25;2.75;;;;;;;-146.25;88.95;52177.59;2106596;28;20056;-65
2023/05/30 00:46:57;;;;;;;10.63;2.83;;;;;;;-146.25;89.28;52179.63;2097223;28;20044;-66
2023/05/30 00:47:59;;;;;;;10.30;2.58;;;;;;;-146.25;89.30;52116.78;2097733;28;20037;-65
2023/05/30 00:49:02;;;;;;;12.60;3.03;;;;;;;-146.25;89.24;52133.00;2096745;28;28448;-66
2023/05/30 00:50:07;;;;;;;10.65;2.42;;;;;;;-146.25;89.35;52187.75;2097856;28;20228;-66
2023/05/30 00:51:13;;;;;;;11.35;2.60;;;;;;;-146.25;89.47;52128.94;2096586;28;23904;-63
2023/05/30 00:52:15;;;;;;;19.55;3.20;;;;;;;-146.25;89.82;52157.34;2097785;28;25677;-64
2023/05/30 00:53:22;;;;;;;11.23;2.50;;;;;;;-146.25;89.58;52169.50;2096893;28;20144;-64
2023/05/30 00:54:23;;;;;;;11.73;2.72;;;;;;;-146.25;89.48;52124.91;2097544;28;26464;-64
2023/05/30 00:55:27;;;;;;;12.52;2.40;;;;;;;-146.25;89.52;52155.31;2105230;28;29987;-64
2023/05/30 00:56:30;;;;;;;12.15;2.63;;;;;;;-146.25;89.71;52149.22;2105611;28;33735;-64
2023/05/30 00:57:33;;;;;;;14.45;2.80;;;;;;;-146.25;89.55;52133.00;2096664;28;26188;-64
2023/05/30 00:58:37;;;;;;;16.10;3.05;;;;;;;-146.25;89.61;52155.31;2096685;28;20168;-64
2023/05/30 00:59:39;;;;;;;12.82;3.13;;;;;;;-146.25;89.93;52181.66;2096990;28;28820;-63
2023/05/30 01:00:42;;;;;;;15.40;2.85;;;;;;;-146.25;89.66;52157.34;2096673;28;25793;-63
2023/05/30 01:01:43;;;;;;;12.73;2.83;;;;;;;-146.25;90.05;52141.13;2088252;28;20045;-64
2023/05/30 01:02:48;;;;;;;17.05;2.60;;;;;;;-146.25;90.22;52161.38;2096297;28;36949;-63
2023/05/30 01:03:51;;;;;;;14.75;2.20;;;;;;;-146.25;89.95;52159.34;2105105;28;20114;-64
2023/05/30 01:04:53;;;;;;;14.75;2.60;;;;;;;-146.25;90.11;52159.34;2105424;28;27785;-65
2023/05/30 01:05:56;;;;;;;15.55;2.58;;;;;;;-146.25;90.04;52185.72;2105735;28;28933;-64
2023/05/30 01:06:59;;;;;;;15.50;3.20;;;;;;;-146.25;90.25;52155.31;2105975;28;21015;-64
2023/05/30 01:08:01;;;;;;;16.92;2.90;;;;;;;-146.25;90.28;52137.06;2097107;28;28683;-65
2023/05/30 01:09:04;;;;;;;9.00;2.30;;;;;;;-146.25;90.46;52185.72;2097233;28;20041;-64
2023/05/30 01:10:07;;;;;;;11.40;2.70;;;;;;;-146.25;90.71;52163.41;2097260;28;20727;-65
2023/05/30 01:11:46;;;;;;;14.18;2.83;;;;;;;-146.25;90.06;52155.31;2096866;28;27060;-65
2023/05/30 01:13:33;;;;;;;12.35;2.60;;;;;;;-146.25;90.46;52143.13;2097086;28;20089;-65
2023/05/30 01:15:17;;;;;;;12.25;2.40;;;;;;;-146.25;90.52;52153.28;2105167;28;31498;-64
2023/05/30 01:16:25;;;;;;;13.77;2.67;;;;;;;-146.25;90.56;52157.34;2106071;28;20151;-64
2023/05/30 01:18:04;;;;;;;11.90;2.60;;;;;;;-146.25;91.39;52143.13;2096629;28;23540;-66
2023/05/30 01:19:35;;;;;;;9.95;2.50;;;;;;;-146.25;91.33;52173.56;2100891;28;29823;-66
2023/05/30 01:20:45;;;;;;;9.27;2.67;;;;;;;-146.25;91.31;52175.56;2105572;28;38247;-64
2023/05/30 01:22:11;;;;;;;13.85;2.65;;;;;;;-146.25;91.48;52195.84;2096696;28;20875;-65
2023/05/30 01:23:47;;;;;;;12.75;2.60;;;;;;;-146.25;91.29;52137.06;2092522;28;30881;-64
2023/05/30 01:25:14;;;;;;;14.85;2.67;;;;;;;-146.25;91.79;52165.44;2096499;28;28164;-65
2023/05/30 01:26:35;;;;;;;12.38;2.40;;;;;;;-146.25;91.65;52159.34;2104295;28;36707;-64
2023/05/30 01:28:08;;;;;;;9.40;2.25;;;;;;;-146.25;91.87;52165.44;2105248;28;20079;-64
2023/05/30 01:29:23;;;;;;;15.73;2.65;;;;;;;-146.25;91.43;52165.44;2096622;28;23215;-64
2023/05/30 01:30:28;;;;;;;11.55;2.97;;;;;;;-146.25;91.36;52173.56;2087624;28;20172;-65
2023/05/30 01:31:32;;;;;;;15.70;2.60;;;;;;;-146.25;92.08;52149.22;2081536;28;30176;-64
2023/05/30 01:32:35;;;;;;;15.45;3.13;;;;;;;-146.25;91.41;52157.34;2088578;28;20883;-65
2023/05/30 01:33:38;;;;;;;14.35;2.60;;;;;;;-146.25;91.30;52169.50;2089076;28;27701;-64
2023/05/30 01:34:40;;;;;;;12.25;2.70;;;;;;;-146.25;91.65;52137.06;2105083;28;30777;-65
2023/05/30 01:35:45;;;;;;;13.63;2.60;;;;;;;-146.25;91.81;52102.59;2096394;28;32927;-64
2023/05/30 01:36:47;;;;;;;9.77;2.88;;;;;;;-146.25;91.75;52149.22;2097045;28;27845;-65
2023/05/30 01:37:49;;;;;;;12.88;3.00;;;;;;;-146.25;91.79;52177.59;2105360;28;30144;-65
2023/05/30 01:38:51;;;;;;;14.98;2.55;;;;;;;-146.25;91.49;52157.34;2096244;28;28754;-66
2023/05/30 01:39:53;;;;;;;14.32;3.50;;;;;;;-146.25;92.14;52157.34;2088554;28;20076;-65
2023/05/30 01:40:59;;;;;;;14.50;3.00;;;;;;;-146.25;91.54;52171.53;2079421;28;23439;-63
2023/05/30 01:42:15;;;;;;;14.60;2.85;;;;;;;-146.25;91.95;52141.13;2090318;28;20045;-65
2023/05/30 01:43:46;;;;;;;11.50;2.78;;;;;;;-146.25;92.16;52151.25;2088118;28;20045;-65
2023/05/30 01:45:20;;;;;;;11.27;2.58;;;;;;;-146.25;92.29;52130.97;2091217;28;20048;-65
2023/05/30 01:46:38;;;;;;;7.35;2.03;;;;;;;-146.25;92.25;52141.13;2096628;28;20843;-65
2023/05/30 01:48:06;;;;;;;11.55;2.30;;;;;;;-146.25;92.51;52165.44;2090613;28;20846;-64
2023/05/30 01:49:37;;;;;;;13.75;2.53;;;;;;;-146.25;92.88;52175.56;2083622;28;20930;-64
2023/05/30 01:50:47;;;;;;;;;;;;;;;-146.25;92.77;52171.53;2099994;28;25076;-65
2023/05/30 01:51:58;;;;;;;9.95;2.08;;;;;;;-146.25;92.87;52169.50;2105255;28;26619;-65
2023/05/30 01:53:02;;;;;;;12.45;2.50;;;;;;;-146.25;92.57;52110.69;2096879;28;20099;-64
2023/05/30 01:54:07;;;;;;;9.43;2.85;;;;;;;-146.25;93.19;52143.13;2088447;28;21023;-65
2023/05/30 01:55:11;;;;;;;13.85;3.00;;;;;;;-146.25;92.67;52187.75;2088654;28;20047;-65
2023/05/30 01:56:14;;;;;;;8.88;2.75;;;;;;;-146.25;92.95;52149.22;2097771;28;20041;-65
2023/05/30 01:57:17;;;;;;;11.93;3.33;;;;;;;-146.25;94.20;52165.44;2095813;28;35979;-65
2023/05/30 01:58:22;;;;;;;12.13;2.65;;;;;;;-146.25;93.77;52153.28;2088769;28;20536;-65
2023/05/30 01:59:26;;;;;;;17.85;3.03;;;;;;;-146.25;93.92;52151.25;2096199;28;20045;-65
2023/05/30 02:00:30;;;;;;;10.40;2.70;;;;;;;-146.25;94.67;52155.31;2088144;28;20084;-65
2023/05/30 02:01:33;;;;;;;15.43;3.38;;;;;;;-146.25;94.24;52137.06;2096699;28;20041;-65
2023/05/30 02:02:34;;;;;;;16.48;2.63;;;;;;;-146.25;93.70;52208.03;2096596;28;27780;-65
2023/05/30 02:03:36;;;;;;;10.20;3.17;;;;;;;-146.25;94.57;52157.34;2097023;28;20249;-63
2023/05/30 02:04:38;;;;;;;15.00;2.80;;;;;;;-146.25;94.73;52191.81;2096306;28;28889;-65
2023/05/30 02:05:40;;;;;;;11.45;3.10;;;;;;;-146.25;95.18;52177.59;2087962;28;21325;-65
2023/05/30 02:06:42;;;;;;;14.35;3.25;;;;;;;-146.25;94.62;52133.00;2096545;28;25117;-65
2023/05/30 02:07:44;;;;;;;13.35;3.42;;;;;;;-146.25;95.21;52161.38;2096249;28;20049;-65
2023/05/30 02:08:46;;;;;;;16.08;3.55;;;;;;;-146.25;95.33;52141.13;2096877;28;20041;-65
2023/05/30 02:09:49;;;;;;;10.55;2.88;;;;;;;-146.25;94.69;52173.56;2104435;28;20167;-66
2023/05/30 02:10:51;;;;;;;10.68;2.53;;;;;;;-146.25;96.16;52173.56;2096194;28;21146;-66
2023/05/30 02:11:55;;;;;;;13.60;2.60;;;;;;;-146.25;95.16;52149.22;2088568;28;20841;-66
2023/05/30 02:12:57;;;;;;;16.48;2.72;;;;;;;-146.25;95.68;52149.22;2096740;28;31001;-64
2023/05/30 02:13:59;;;;;;;15.50;2.83;;;;;;;-146.25;96.13;52183.69;2087168;28;20267;-65
2023/05/30 02:15:01;;;;;;;16.13;3.22;;;;;;;-146.25;96.66;52169.50;2088585;28;20045;-65
2023/05/30 02:16:06;;;;;;;17.55;3.25;;;;;;;-146.25;96.10;52157.34;2096153;28;20045;-65
2023/05/30 02:17:07;;;;;;;12.23;2.60;;;;;;;-146.25;96.03;52126.91;2096667;28;26565;-65
2023/05/30 02:18:10;;;;;;;12.32;2.92;;;;;;;-146.25;96.05;52173.56;2104166;28;30124;-65
2023/05/30 02:19:12;;;;;;;11.48;2.67;;;;;;;-146.25;96.02;52193.81;2105342;28;31242;-65
2023/05/30 02:20:14;;;;;;;9.40;2.78;;;;;;;-146.25;96.74;52137.06;2104824;28;31814;-65
2023/05/30 02:21:16;;;;;;;12.15;3.28;;;;;;;-146.25;96.69;52206.00;2105106;28;20080;-66
2023/05/30 02:22:18;;;;;;;10.73;3.05;;;;;;;-146.25;96.85;52161.38;2095782;28;24488;-65
2023/05/30 02:23:20;;;;;;;9.13;2.92;;;;;;;-146.25;96.69;52206.00;2097043;28;20210;-66
2023/05/30 02:24:22;;;;;;;10.93;2.88;;;;;;;-146.25;96.86;52159.34;2095773;28;20887;-65
2023/05/30 02:25:28;;;;;;;11.32;2.90;;;;;;;-146.25;96.98;52126.91;2096483;28;20163;-65
2023/05/30 02:26:29;;;;;;;8.48;2.70;;;;;;;-146.25;96.81;52177.59;2095571;28;31153;-65
2023/05/30 02:27:31;;;;;;;14.45;2.90;;;;;;;-146.25;96.99;52153.28;2105023;28;25274;-65
2023/05/30 02:28:33;;;;;;;11.05;3.00;;;;;;;-146.25;97.48;52141.13;2095994;28;20118;-65
2023/05/30 02:29:35;;;;;;;10.00;2.90;;;;;;;-146.25;97.94;52177.59;2095811;28;24029;-66
2023/05/30 02:30:38;;;;;;;11.35;2.88;;;;;;;-146.25;97.46;52153.28;2096169;28;20044;-64
2023/05/30 02:31:39;;;;;;;15.43;3.53;;;;;;;-146.25;97.14;52143.13;2088059;28;20173;-66
2023/05/30 02:32:41;;;;;;;14.35;3.42;;;;;;;-146.25;97.72;52169.50;2096217;28;20049;-65
2023/05/30 02:33:43;;;;;;;14.55;3.60;;;;;;;-146.25;97.96;52141.13;2105210;28;20921;-65
2023/05/30 02:34:48;;;;;;;17.95;3.42;;;;;;;-146.25;97.71;52175.56;2095903;28;21471;-65
2023/05/30 02:35:50;;;;;;;11.30;2.90;;;;;;;-146.25;97.64;52161.38;2096369;28;20145;-65
2023/05/30 02:36:51;;;;;;;13.98;3.00;;;;;;;-146.25;98.12;52124.91;2104469;28;21909;-66
2023/05/30 02:37:53;;;;;;;9.60;2.67;;;;;;;-146.25;98.06;52167.47;2096318;28;29931;-65
2023/05/30 02:38:55;;;;;;;11.95;2.60;;;;;;;-146.25;98.18;52163.41;2096246;28;20174;-66
2023/05/30 02:39:58;;;;;;;12.75;2.85;;;;;;;-146.25;98.09;52169.50;2096455;28;20045;-65
2023/05/30 02:41:00;;;;;;;9.88;2.70;;;;;;;-146.25;97.98;52167.47;2095816;28;20084;-65
2023/05/30 02:42:02;;;;;;;12.82;3.05;;;;;;;-146.25;97.82;52177.59;2104692;28;20036;-65
2023/05/30 02:43:05;;;;;;;10.77;3.05;;;;;;;-146.25;98.32;52161.38;2095836;28;20049;-65
2023/05/30 02:44:17;;;;;;;17.90;3.50;;;;;;;-146.25;98.25;52153.28;2089104;28;20046;-65
2023/05/30 02:45:19;;;;;;;11.10;2.65;;;;;;;-146.25;98.52;52133.00;2095701;28;20128;-65
2023/05/30 02:46:21;;;;;;;15.13;3.28;;;;;;;-146.25;98.13;52187.75;2088263;28;20049;-65
2023/05/30 02:47:23;;;;;;;15.40;3.47;;;;;;;-146.25;98.06;52133.00;2095582;28;25505;-65
2023/05/30 02:48:25;;;;;;;11.63;2.97;;;;;;;-146.25;98.19;52169.50;2088053;28;20042;-65
2023/05/30 02:49:31;;;;;;;9.82;2.63;;;;;;;-146.25;97.77;52187.75;2096502;28;20046;-65
2023/05/30 02:50:33;;;;;;;13.55;3.20;;;;;;;-146.25;98.13;52153.28;2088014;28;20040;-65
2023/05/30 02:51:41;;;;;;;9.60;2.63;;;;;;;-146.25;98.51;52175.56;2088937;28;20072;-65
2023/05/30 02:52:52;;;;;;;11.63;3.03;;;;;;;-146.25;99.10;52175.56;2095812;28;20151;-66
2023/05/30 02:53:55;;;;;;;11.00;2.88;;;;;;;-146.25;99.38;52165.44;2087943;28;20088;-65
2023/05/30 02:55:07;;;;;;;17.23;3.00;;;;;;;-146.25;98.51;52149.22;2089706;28;20041;-66
2023/05/30 02:56:11;;;;;;;11.82;3.38;;;;;;;-146.25;98.76;52157.34;2096668;28;20045;-64
2023/05/30 02:57:29;;;;;;;8.25;2.00;;;;;;;-146.25;99.03;52173.56;2095716;28;20045;-66
2023/05/30 02:58:45;;;;;;;8.45;2.88;;;;;;;-146.25;98.36;52167.47;2096190;28;20260;-64
2023/05/30 03:00:02;;;;;;;17.70;3.15;;;;;;;-146.25;99.03;52191.81;2091585;28;20918;-64
2023/05/30 03:01:05;;;;;;;22.38;3.65;;;;;;;-146.25;99.85;52153.28;2087956;28;20041;-64
2023/05/30 03:02:09;;;;;;;11.43;2.90;;;;;;;-146.25;98.31;52147.19;2095960;28;20882;-64
2023/05/30 03:03:15;;;;;;;10.10;3.08;;;;;;;-146.25;98.37;52177.59;2096085;28;20049;-64
2023/05/30 03:04:22;;;;;;;11.57;2.97;;;;;;;-146.25;98.82;52167.47;2097358;28;20053;-64
2023/05/30 03:05:28;;;;;;;17.52;3.85;;;;;;;-146.25;98.38;52201.94;2095752;28;20052;-64
2023/05/30 03:06:31;;;;;;;13.48;3.70;;;;;;;-146.25;98.58;52201.94;2088094;28;20175;-64
2023/05/30 03:07:52;;;;;;;13.63;3.60;;;;;;;-146.25;99.44;52157.34;2090384;28;20114;-64
2023/05/30 03:08:59;;;;;;;10.10;2.95;;;;;;;-146.25;97.80;52153.28;2090820;28;20048;-64
2023/05/30 03:10:03;;;;;;;11.55;3.08;;;;;;;-146.25;98.42;52165.44;2096300;28;20938;-64
2023/05/30 03:11:07;;;;;;;9.00;2.72;;;;;;;-146.25;97.82;52197.88;2096409;28;20292;-64
2023/05/30 03:12:09;;;;;;;10.23;2.85;;;;;;;-146.25;97.45;52169.50;2095877;28;20037;-64
2023/05/30 03:13:11;;;;;;;11.02;3.00;;;;;;;-146.25;98.04;52175.56;2088557;28;20037;-64
2023/05/30 03:14:13;;;;;;;9.38;2.80;;;;;;;-146.25;97.47;52149.22;2095569;28;20048;-65
2023/05/30 03:15:18;;;;;;;10.20;2.90;;;;;;;-146.25;97.83;52169.50;2096577;28;20045;-64
2023/05/30 03:16:20;;;;;;;14.23;3.55;;;;;;;-146.25;97.55;52167.47;2087812;28;20041;-64
2023/05/30 03:17:22;;;;;;;14.13;3.38;;;;;;;-146.25;98.17;52165.44;2088155;28;20042;-64
2023/05/30 03:18:24;;;;;;;10.70;3.03;;;;;;;-146.25;97.89;52181.66;2087271;28;20084;-65
2023/05/30 03:19:29;;;;;;;12.27;3.38;;;;;;;-146.25;97.71;52169.50;2087820;28;20119;-64
2023/05/30 03:20:34;;;;;;;12.35;2.63;;;;;;;-146.25;98.15;52165.44;2096000;28;20043;-64
2023/05/30 03:21:37;;;;;;;15.48;3.95;;;;;;;-146.25;98.50;52155.31;2088504;28;20183;-65
2023/05/30 03:22:41;;;;;;;14.32;3.78;;;;;;;-146.25;97.74;52165.44;2079317;28;20044;-66
2023/05/30 03:23:43;;;;;;;15.25;3.20;;;;;;;-146.25;98.01;52171.53;2088934;28;20148;-66
2023/05/30 03:24:45;;;;;;;10.45;3.28;;;;;;;-146.25;97.98;52161.38;2095559;28;20136;-66
2023/05/30 03:25:47;;;;;;;11.90;3.35;;;;;;;-146.25;97.14;52177.59;2096304;28;20169;-64
2023/05/30 03:26:49;;;;;;;12.85;3.55;;;;;;;-146.25;97.17;52171.53;2095638;28;20052;-64
2023/05/30 03:27:52;;;;;;;13.10;3.15;;;;;;;-146.25;98.22;52181.66;2096677;28;20033;-64
2023/05/30 03:28:56;;;;;;;15.60;4.03;;;;;;;-146.25;97.32;52163.41;2095926;28;20052;-65
2023/05/30 03:30:02;;;;;;;14.95;3.45;;;;;;;-146.25;97.17;52139.09;2087818;28;20105;-65
2023/05/30 03:31:06;;;;;;;12.43;3.28;;;;;;;-146.25;97.52;52179.63;2087406;28;21538;-64
2023/05/30 03:32:08;;;;;;;7.45;2.60;;;;;;;-146.25;96.99;52169.50;2088391;28;20049;-65
2023/05/30 03:33:11;;;;;;;9.15;2.67;;;;;;;-146.25;96.66;52181.66;2095386;28;20163;-64
2023/05/30 03:34:12;;;;;;;10.85;3.20;;;;;;;-146.25;97.17;52177.59;2096356;28;20041;-64
2023/05/30 03:35:16;;;;;;;15.00;3.17;;;;;;;-146.25;96.78;52165.44;2096054;28;20037;-64
2023/05/30 03:36:18;;;;;;;12.27;2.78;;;;;;;-146.25;96.81;52165.44;2096066;28;20115;-64
2023/05/30 03:37:20;;;;;;;11.63;3.40;;;;;;;-146.25;97.02;52126.91;2095866;28;20786;-64
2023/05/30 03:38:21;;;;;;;21.92;3.40;;;;;;;-146.25;97.08;52193.81;2104967;28;28083;-64
2023/05/30 03:39:23;;;;;;;12.10;2.97;;;;;;;-146.25;96.57;52185.72;2104438;28;24123;-64
2023/05/30 03:40:28;;;;;;;12.98;3.30;;;;;;;-146.25;96.26;52189.78;2095829;28;20949;-65
2023/05/30 03:41:30;;;;;;;13.48;3.10;;;;;;;-146.25;96.47;52197.88;2095030;28;31578;-64
2023/05/30 03:42:32;;;;;;;19.83;3.25;;;;;;;-146.25;96.49;52159.34;2097493;28;20061;-65
2023/05/30 03:43:34;;;;;;;14.52;3.80;;;;;;;-146.25;95.68;52187.75;2096902;28;20988;-65
2023/05/30 03:44:35;;;;;;;12.98;3.53;;;;;;;-146.25;96.29;52161.38;2105121;28;29303;-64
2023/05/30 03:45:37;;;;;;;12.07;2.90;;;;;;;-146.25;95.70;52193.81;2105821;28;28615;-64
2023/05/30 03:46:42;;;;;;;12.80;2.92;;;;;;;-146.25;95.94;52155.31;2106263;28;26550;-64
2023/05/30 03:47:44;;;;;;;12.70;3.20;;;;;;;-146.25;96.17;52163.41;2105540;28;27093;-64
2023/05/30 03:48:47;;;;;;;13.32;3.03;;;;;;;-146.25;95.28;52175.56;2105605;28;23622;-65
2023/05/30 03:49:49;;;;;;;16.38;3.53;;;;;;;-146.25;95.28;52141.13;2105705;28;20579;-65
2023/05/30 03:50:51;;;;;;;12.82;3.10;;;;;;;-146.25;95.36;52208.03;2096606;28;23941;-65
2023/05/30 03:51:52;;;;;;;13.80;3.05;;;;;;;-146.25;95.77;52185.72;2096780;28;26204;-65
2023/05/30 03:52:54;;;;;;;15.93;3.30;;;;;;;-146.25;95.46;52149.22;2105972;28;30781;-64
2023/05/30 03:53:58;;;;;;;11.82;2.88;;;;;;;-146.25;95.39;52167.47;2106192;28;24908;-64
2023/05/30 03:55:00;;;;;;;10.15;3.13;;;;;;;-146.25;94.97;52191.81;2106070;28;27833;-64
2023/05/30 03:56:02;;;;;;;13.18;2.92;;;;;;;-146.25;95.48;52147.19;2096636;28;20883;-64
2023/05/30 03:57:05;;;;;;;9.43;2.97;;;;;;;-146.25;94.96;52139.09;2096923;28;20122;-63
2023/05/30 03:58:10;;;;;;;11.27;2.83;;;;;;;-146.25;95.42;52153.28;2105406;28;20265;-64
2023/05/30 03:59:15;;;;;;;12.07;2.80;;;;;;;-146.25;94.90;52157.34;2105821;28;22012;-64
2023/05/30 04:00:16;;;;;;;15.48;3.05;;;;;;;-146.25;95.22;52165.44;2105259;28;32839;-65
2023/05/30 04:01:18;;;;;;;17.38;3.40;;;;;;;-146.25;95.07;52169.50;2097005;28;20079;-65
2023/05/30 04:02:20;;;;;;;9.30;2.92;;;;;;;-146.25;95.12;52197.88;2096704;28;23848;-64
2023/05/30 04:03:22;;;;;;;10.95;2.90;;;;;;;-146.25;94.82;52193.81;2105593;28;30705;-65
2023/05/30 04:04:26;;;;;;;8.52;2.72;;;;;;;-146.25;94.56;52177.59;2105729;28;20112;-65
2023/05/30 04:05:28;;;;;;;11.18;2.67;;;;;;;-146.25;94.92;52173.56;2097063;28;27636;-65
2023/05/30 04:06:30;;;;;;;14.25;3.50;;;;;;;-146.25;95.09;52157.34;2088584;28;20871;-65
2023/05/30 04:07:35;;;;;;;10.75;3.13;;;;;;;-146.25;94.84;52169.50;2089369;28;20207;-65
2023/05/30 04:08:40;;;;;;;11.25;2.67;;;;;;;-146.25;94.59;52197.88;2098006;28;20928;-64
2023/05/30 04:09:41;;;;;;;11.27;3.08;;;;;;;-146.25;94.37;52183.69;2097520;28;20041;-64
2023/05/30 04:10:45;;;;;;;12.95;2.95;;;;;;;-146.25;94.56;52169.50;2097043;28;20179;-65
2023/05/30 04:11:49;;;;;;;15.45;3.13;;;;;;;-146.25;94.81;52185.72;2097061;28;20802;-64
2023/05/30 04:12:50;;;;;;;10.30;2.88;;;;;;;-146.25;94.35;52185.72;2087597;28;33758;-64
2023/05/30 04:13:55;;;;;;;13.90;2.97;;;;;;;-146.25;94.62;52193.81;2089224;28;20034;-65
2023/05/30 04:14:57;;;;;;;18.67;3.03;;;;;;;-146.25;94.97;52149.22;2096810;28;32674;-65
2023/05/30 04:16:00;;;;;;;11.45;2.67;;;;;;;-146.25;94.57;52197.88;2097313;28;21028;-65
2023/05/30 04:17:02;;;;;;;15.32;3.00;;;;;;;-146.25;94.48;52179.63;2089196;28;28187;-64
2023/05/30 04:18:04;;;;;;;20.60;3.40;;;;;;;-146.25;94.66;52189.78;2097668;28;30717;-65
2023/05/30 04:19:06;;;;;;;14.57;2.95;;;;;;;-146.25;94.53;52208.03;2105715;28;28782;-64
2023/05/30 04:20:09;;;;;;;14.32;3.15;;;;;;;-146.25;94.23;52169.50;2097424;28;20227;-65
2023/05/30 04:21:14;;;;;;;12.13;2.83;;;;;;;-146.25;94.34;52165.44;2088950;28;20802;-65
2023/05/30 04:22:17;;;;;;;12.65;2.83;;;;;;;-146.25;94.68;52155.31;2089445;28;20081;-65
2023/05/30 04:23:22;;;;;;;15.10;2.97;;;;;;;-146.25;94.21;52169.50;2088786;28;20045;-64
2023/05/30 04:24:25;;;;;;;10.65;2.50;;;;;;;-146.25;94.67;52197.88;2097193;28;20554;-65
2023/05/30 04:25:30;;;;;;;11.48;3.00;;;;;;;-146.25;94.24;52187.75;2088530;28;20091;-64
2023/05/30 04:26:36;;;;;;;11.57;2.70;;;;;;;-146.25;94.89;52220.19;2098319;28;20044;-65
2023/05/30 04:27:41;;;;;;;14.13;2.58;;;;;;;-146.25;94.47;52163.41;2088742;28;20049;-64
2023/05/30 04:28:56;;;;;;;14.95;2.50;;;;;;;-146.25;94.64;52199.91;2092007;28;20092;-64
2023/05/30 04:30:02;;;;;;;11.68;2.92;;;;;;;-146.25;95.00;52161.38;2097159;28;20041;-64
2023/05/30 04:31:07;;;;;;;16.55;2.55;;;;;;;-146.25;94.74;52153.28;2089164;28;21307;-65
2023/05/30 04:32:23;;;;;;;18.70;3.20;;;;;;;-146.25;94.53;52179.63;2091741;28;20045;-65
2023/05/30 04:33:28;;;;;;;11.50;2.63;;;;;;;-146.25;94.69;52177.59;2097156;28;21426;-64
2023/05/30 04:34:32;;;;;;;13.32;3.05;;;;;;;-146.25;94.30;52203.97;2097144;28;20096;-64
2023/05/30 04:35:34;;;;;;;14.30;3.15;;;;;;;-146.25;94.27;52169.50;2088887;28;20110;-64
2023/05/30 04:36:37;;;;;;;13.27;2.90;;;;;;;-146.25;94.28;52183.69;2097260;28;20110;-64
2023/05/30 04:37:44;;;;;;;13.55;2.97;;;;;;;-146.25;94.39;52216.13;2096798;28;20049;-65
2023/05/30 04:38:49;;;;;;;15.00;2.75;;;;;;;-146.25;94.41;52169.50;2098222;28;20041;-64
2023/05/30 04:39:52;;;;;;;13.10;2.97;;;;;;;-146.25;94.60;52183.69;2106153;28;20047;-65
2023/05/30 04:40:53;;;;;;;15.70;2.80;;;;;;;-146.25;93.85;52151.25;2106158;28;27412;-64
2023/05/30 04:41:55;;;;;;;13.93;2.65;;;;;;;-146.25;94.18;52163.41;2105597;28;23833;-64
2023/05/30 04:42:58;;;;;;;15.45;2.67;;;;;;;-146.25;94.13;52147.19;2096758;28;25602;-64
2023/05/30 04:44:00;;;;;;;14.73;3.22;;;;;;;-146.25;94.50;52187.75;2088659;28;20112;-64
2023/05/30 04:45:04;;;;;;;16.50;3.20;;;;;;;-146.25;94.51;52191.81;2088731;28;20044;-64
2023/05/30 04:46:08;;;;;;;13.13;3.22;;;;;;;-146.25;95.09;52199.91;2088199;28;20049;-64
2023/05/30 04:47:14;;;;;;;19.80;3.53;;;;;;;-146.25;94.73;52139.09;2089744;28;20127;-65
2023/05/30 04:48:16;;;;;;;17.98;3.28;;;;;;;-146.25;95.00;52191.81;2088744;28;20048;-65
2023/05/30 04:49:21;;;;;;;19.15;3.40;;;;;;;-146.25;95.15;52171.53;2097598;28;20087;-65
2023/05/30 04:50:24;;;;;;;14.88;3.20;;;;;;;-146.25;94.96;52161.38;2097073;28;20029;-65
2023/05/30 04:51:27;;;;;;;16.08;3.28;;;;;;;-146.25;94.87;52151.25;2089051;28;29672;-65
2023/05/30 04:52:29;;;;;;;20.25;3.20;;;;;;;-146.25;94.79;52197.88;2096975;28;22281;-64
2023/05/30 04:53:31;;;;;;;17.92;3.35;;;;;;;-146.25;94.95;52173.56;2104459;28;30550;-65
2023/05/30 04:54:37;;;;;;;17.65;3.80;;;;;;;-146.25;94.75;52183.69;2096909;28;20049;-65
2023/05/30 04:55:39;;;;;;;13.13;2.45;;;;;;;-146.25;94.57;52183.69;2088895;28;20034;-64
2023/05/30 04:56:41;;;;;;;9.90;3.00;;;;;;;-146.25;94.84;52173.56;2096228;28;27307;-64